LZPPLZZI

Guest
Details From LZPP - PIESTANY
To LZZI - Zilina
Flight Number -
Tags generated
Created
Modified
Stats Distance 48 nm / 90 km
Max Altitude 900 ft / 274 m
Waypoints 3
Social Downloads 1
Likes 0
Share VATSIM

Download

Looking for another format? Having issues loading an existing format? Contact us
Advertisement - Login to hide

Notes

Basic altitude profile: - Ascent Rate: 2500ft/min - Ascent Speed: 250kts - Cruise Altitude: 10000ft - Cruise Speed: 420kts - Descent Rate: 1500ft/min - Descent Speed: 250kts Options: - Use NATs: yes - Use PACOTS: yes - Use low airways: yes - Use high airways: no

Route

LZPP ZLA LZZI

ID Type Via Altitude Latitude Longitude Leg Dist Tot Dist Heading (true) Name
O LZPP APT - 0 ft / 0 m 48.62525˚ 17.82844˚ - 0 nm - PIESTANY
ZLA NDB - 900 ft / 274 m 49.20289˚ 18.51045˚ 43 nm 43 nm 38° / 38° ZILINA NDB
O LZZI APT - 0 ft / 0 m 49.23363˚ 18.61343˚ 4 nm 48 nm 65° / 65° Zilina

Altitude Profile

Advertisement - Login to hide

LZPP

Details ICAO LZPP (PZY)
Name PIESTANY
Region Slovakia
Timezone Europe/Bratislava (UTC+1.0)
Stats Elevation 545 ft / 166 m (AMSL)
Location 48.625246° 17.828443°
Runways 1
Magnetic Variation 4.585° E

METAR

LZPP 141700Z 18005KT CAVOK 05/M02 Q1005

Decode

TAF

Not found

Departure Runways

ID Width Length Bearing (true) Bearing (mag) Surface Threshold Offset Overrun Length
01 98 ft / 30 m 6,560 ft / 1,999 m 13.71° 9.13° Asphalt 0 ft / 0 m 0 ft / 0 m
19 98 ft / 30 m 6,560 ft / 1,999 m 193.72° 189.14° Asphalt 0 ft / 0 m 0 ft / 0 m

LZZI

Details ICAO LZZI (ILZ)
Name Zilina
Region Slovakia
Timezone Europe/Bratislava (UTC+1.0)
Stats Elevation 1,020 ft / 311 m (AMSL)
Location 49.233635° 18.613428°
Runways 2
Magnetic Variation 4.827° E

METAR

LZZI 141700Z VRB01KT 6000 FEW047 BKN053 01/00 Q1003

Decode

TAF

Not found

Destination Runways

ID Width Length Bearing (true) Bearing (mag) Surface Threshold Offset Overrun Length
06 98 ft / 30 m 3,754 ft / 1,144 m 64.59° 59.76° Concrete 0 ft / 0 m 0 ft / 0 m
06L 148 ft / 45 m 3,705 ft / 1,129 m 64.59° 59.76° Grass 0 ft / 0 m 0 ft / 0 m
24 98 ft / 30 m 3,754 ft / 1,144 m 244.60° 239.77° Concrete 0 ft / 0 m 0 ft / 0 m
24R 148 ft / 45 m 3,705 ft / 1,129 m 244.60° 239.77° Grass 0 ft / 0 m 0 ft / 0 m

Approach Navaids

Runway Type Ident Frequency Range Bearing (true) Bearing (mag) Slope Elevation
06 Localiser ZNA 108.15 MHz 30 nm / 56 km 64.59° 59.76° - 1,020 ft / 311 m (AMSL)
06 Glidescope ZNA 108.15 MHz 15 nm / 28 km 61.00° 56.17° 3.00° 1,020 ft / 311 m (AMSL)

Popular Alternatives